Time;durP1;ratioP1;P1;durP2;ratioP2;P2;SDS_P1;SDS_P2;PMS_P1;PMS_P2;Temp;Humidity;BMP_temperature;BMP_pressure;BME280_temperature;BME280_humidity;BME280_pressure;Samples;Min_cycle;Max_cycle;Signal;HPM_P1;HPM_P2
2022/11/15 00:01:59;;;;;;;13.88;5.95;;;;;;;21.33;53.66;100493.53;4993759;28;20160;-52
2022/11/15 00:04:25;;;;;;;15.60;5.45;;;;;;;21.33;53.69;100493.53;4994249;28;20173;-47
2022/11/15 00:06:50;;;;;;;14.68;6.07;;;;;;;21.33;53.47;100487.44;4992939;28;20596;-49
2022/11/15 00:09:15;;;;;;;15.70;7.50;;;;;;;21.33;53.65;100490.06;4996271;28;20034;-47
2022/11/15 00:11:41;;;;;;;13.40;5.65;;;;;;;21.33;53.69;100485.66;4994355;28;20418;-46
2022/11/15 00:14:06;;;;;;;14.95;5.78;;;;;;;21.32;53.66;100486.56;4995579;28;20038;-49
2022/11/15 00:16:31;;;;;;;16.95;6.22;;;;;;;21.31;53.82;100482.28;4991513;28;20053;-49
2022/11/15 00:18:57;;;;;;;17.02;6.65;;;;;;;21.32;53.52;100485.72;4996976;28;20041;-49
2022/11/15 00:21:23;;;;;;;17.80;6.90;;;;;;;21.31;53.55;100474.38;4992185;28;20053;-49
2022/11/15 00:23:48;;;;;;;13.52;5.53;;;;;;;21.31;53.32;100484.91;4991569;28;20119;-48
2022/11/15 00:26:14;;;;;;;22.15;7.78;;;;;;;21.31;53.70;100476.16;4993756;28;20072;-48
2022/11/15 00:28:41;;;;;;;11.73;5.15;;;;;;;21.30;53.65;100462.16;4996577;28;20026;-48
2022/11/15 00:31:09;;;;;;;16.30;6.93;;;;;;;21.31;53.63;100476.16;4993681;28;20103;-49
2022/11/15 00:33:35;;;;;;;15.30;6.68;;;;;;;21.31;53.61;100470.91;4995228;28;20022;-50
2022/11/15 00:36:09;;;;;;;13.95;5.65;;;;;;;21.31;53.68;100481.41;4995728;28;20038;-46
2022/11/15 00:38:36;;;;;;;15.70;6.55;;;;;;;21.30;53.69;100479.72;4993794;28;20084;-49
2022/11/15 00:41:03;;;;;;;10.38;5.25;;;;;;;21.30;53.64;100474.44;4994325;28;20496;-47
2022/11/15 00:43:28;;;;;;;17.23;6.90;;;;;;;21.30;53.50;100470.06;4996343;28;20612;-47
2022/11/15 00:45:54;;;;;;;17.15;7.15;;;;;;;21.28;53.67;100478.00;4993547;28;20038;-48
2022/11/15 00:48:19;;;;;;;19.40;7.20;;;;;;;21.30;53.62;100479.72;4997626;28;20037;-49
2022/11/15 00:50:45;;;;;;;16.48;7.13;;;;;;;21.28;53.70;100474.56;4997444;28;20057;-48
2022/11/15 00:53:10;;;;;;;10.88;5.50;;;;;;;21.28;53.65;100485.91;4993616;28;20733;-48
2022/11/15 00:55:35;;;;;;;18.83;7.22;;;;;;;21.27;53.78;100484.22;4999356;28;20042;-49
2022/11/15 00:58:01;;;;;;;18.17;6.47;;;;;;;21.29;53.82;100476.22;4999135;28;20042;-47
2022/11/15 01:00:26;;;;;;;12.07;5.35;;;;;;;21.28;53.52;100471.94;4996463;28;20093;-46
2022/11/15 01:02:51;;;;;;;17.90;6.65;;;;;;;21.28;53.78;100469.31;4995963;28;20042;-49
2022/11/15 01:05:17;;;;;;;18.80;6.90;;;;;;;21.27;53.78;100464.97;4996115;28;20038;-49
2022/11/15 01:07:42;;;;;;;15.45;5.78;;;;;;;21.27;53.75;100464.97;4997237;28;20108;-51
2022/11/15 01:10:08;;;;;;;8.98;4.72;;;;;;;21.27;53.69;100468.44;4998836;28;20030;-48
2022/11/15 01:12:33;;;;;;;13.30;5.97;;;;;;;21.27;53.65;100470.22;4999256;28;20041;-47
2022/11/15 01:14:59;;;;;;;13.77;6.47;;;;;;;21.26;53.56;100466.75;5000113;28;20103;-51
2022/11/15 01:17:24;;;;;;;18.45;6.95;;;;;;;21.26;53.77;100453.59;4996536;28;20048;-47
2022/11/15 01:19:50;;;;;;;14.88;5.70;;;;;;;21.26;53.76;100450.13;4994582;28;20471;-47
2022/11/15 01:22:16;;;;;;;14.15;5.65;;;;;;;21.26;53.72;100448.34;4999477;28;20088;-49
2022/11/15 01:24:41;;;;;;;14.68;7.28;;;;;;;21.25;53.73;100446.63;4992280;28;20077;-49
2022/11/15 01:27:07;;;;;;;13.85;6.07;;;;;;;21.25;53.57;100443.19;4995254;28;20030;-53
2022/11/15 01:29:32;;;;;;;20.60;7.30;;;;;;;21.25;53.54;100451.06;4998043;28;20763;-48
2022/11/15 01:31:57;;;;;;;10.95;4.57;;;;;;;21.25;53.82;100458.97;4995730;28;20042;-48
2022/11/15 01:34:23;;;;;;;13.18;5.45;;;;;;;21.25;53.79;100445.81;4998588;28;20045;-47
2022/11/15 01:36:48;;;;;;;18.70;8.70;;;;;;;21.25;53.80;100441.38;4997156;28;20634;-47
2022/11/15 01:39:15;;;;;;;14.00;6.28;;;;;;;21.24;53.58;100437.06;4999325;28;20133;-51
2022/11/15 01:41:40;;;;;;;12.52;5.38;;;;;;;21.24;53.70;100433.59;4999209;28;20455;-52
2022/11/15 01:44:48;;;;;;;17.25;6.05;;;;;;;21.24;53.72;100430.97;4995425;28;20172;-50
2022/11/15 01:47:26;;;;;;;17.35;6.75;;;;;;;21.24;53.79;100436.22;4996067;28;20233;-49
2022/11/15 01:50:02;;;;;;;14.77;5.30;;;;;;;21.23;53.84;100427.47;5000200;28;20521;-50
2022/11/15 01:52:30;;;;;;;17.15;6.50;;;;;;;21.23;53.72;100424.84;4995416;28;20057;-52
2022/11/15 01:55:13;;;;;;;13.93;6.05;;;;;;;21.23;53.74;100427.47;4993171;28;20125;-48
2022/11/15 01:57:41;;;;;;;16.55;6.35;;;;;;;21.23;53.76;100426.63;4998526;28;20080;-48
2022/11/15 02:00:07;;;;;;;14.75;6.20;;;;;;;21.23;53.81;100424.00;4996814;28;20050;-49
2022/11/15 02:02:34;;;;;;;14.95;5.63;;;;;;;21.22;53.56;100420.53;4991669;28;20649;-51
2022/11/15 02:04:59;;;;;;;11.85;5.45;;;;;;;21.23;53.68;100421.38;4992806;28;20153;-48
2022/11/15 02:07:25;;;;;;;14.07;5.80;;;;;;;21.23;53.70;100421.38;4994399;28;20079;-51
2022/11/15 02:09:51;;;;;;;13.55;5.65;;;;;;;21.22;53.84;100422.31;4996588;28;20048;-49
2022/11/15 02:12:21;;;;;;;14.70;5.50;;;;;;;21.22;53.76;100415.25;4994664;28;20087;-49
2022/11/15 02:14:52;;;;;;;15.55;5.75;;;;;;;21.22;53.75;100415.25;4995130;28;20510;-48
2022/11/15 02:17:46;;;;;;;18.23;6.43;;;;;;;21.22;53.83;100412.63;4995807;28;20041;-49
2022/11/15 02:20:33;;;;;;;18.40;7.60;;;;;;;21.21;53.61;100405.69;4994545;28;20501;-50
2022/11/15 02:23:17;;;;;;;18.13;6.82;;;;;;;21.21;53.68;100408.34;4993682;28;20081;-49
2022/11/15 02:26:30;;;;;;;15.10;6.53;;;;;;;21.21;53.61;100403.06;4997490;28;20443;-49
2022/11/15 02:29:10;;;;;;;11.38;5.03;;;;;;;21.22;54.01;100396.03;4991483;28;20134;-48
2022/11/15 02:31:46;;;;;;;14.52;6.13;;;;;;;21.20;53.75;100393.47;4987440;28;20041;-49
2022/11/15 02:34:33;;;;;;;15.55;6.25;;;;;;;21.20;53.50;100390.84;4996196;28;20616;-48
2022/11/15 02:36:58;;;;;;;16.05;6.55;;;;;;;21.20;53.72;100384.75;4989403;28;20031;-50
2022/11/15 02:39:46;;;;;;;14.00;6.50;;;;;;;21.20;53.75;100390.00;4991904;28;20041;-53
2022/11/15 02:45:09;;;;;;;14.35;5.60;;;;;;;21.20;53.82;100384.75;4978241;28;20100;-48
2022/11/15 02:47:42;;;;;;;15.82;6.78;;;;;;;21.19;53.68;100377.81;4991866;28;20045;-49
2022/11/15 02:50:12;;;;;;;15.63;5.85;;;;;;;21.19;53.75;100372.56;4995310;28;20707;-49
2022/11/15 02:52:37;;;;;;;13.25;5.65;;;;;;;21.20;53.72;100375.09;4998054;28;20987;-48
2022/11/15 02:55:03;;;;;;;7.75;3.97;;;;;;;21.18;53.87;100376.97;5001669;28;20161;-48
2022/11/15 02:57:38;;;;;;;12.07;4.85;;;;;;;21.19;53.83;100370.75;5003279;28;20478;-48
2022/11/15 03:00:14;;;;;;;12.35;5.40;;;;;;;21.18;53.67;100369.06;4993806;28;20065;-50
2022/11/15 03:02:45;;;;;;;13.57;4.80;;;;;;;21.18;53.59;100363.81;4998041;28;20156;-49
2022/11/15 03:05:34;;;;;;;14.52;5.78;;;;;;;21.17;53.69;100359.50;4999351;28;20038;-47
2022/11/15 03:07:59;;;;;;;10.23;3.85;;;;;;;21.17;53.71;100364.75;4994576;28;20042;-50
2022/11/15 03:10:45;;;;;;;12.27;4.55;;;;;;;21.18;53.84;100363.81;4998657;28;20063;-50
2022/11/15 03:13:16;;;;;;;10.63;4.20;;;;;;;21.18;53.81;100362.97;4999685;28;20047;-47
2022/11/15 03:15:53;;;;;;;13.82;5.15;;;;;;;21.18;53.64;100371.72;4998539;28;20059;-48
2022/11/15 03:18:27;;;;;;;16.27;6.28;;;;;;;21.17;53.77;100367.38;5002404;28;20795;-47
2022/11/15 03:20:55;;;;;;;10.75;4.18;;;;;;;21.17;53.71;100372.63;5001470;28;20038;-49
2022/11/15 03:23:20;;;;;;;16.58;5.47;;;;;;;21.17;53.86;100366.53;4995388;28;20058;-49
2022/11/15 03:25:50;;;;;;;10.95;3.90;;;;;;;21.16;53.77;100365.72;5005576;28;20714;-47
2022/11/15 03:28:35;;;;;;;17.10;5.70;;;;;;;21.17;53.71;100369.16;5000880;28;20049;-47
2022/11/15 03:31:46;;;;;;;10.77;4.32;;;;;;;21.17;53.74;100366.53;4994682;28;20033;-52
2022/11/15 03:33:51;;;;;;;12.18;4.35;;;;;;;21.17;53.80;100363.91;4994159;28;20133;-49
2022/11/15 03:36:17;;;;;;;12.45;4.45;;;;;;;21.16;53.68;100357.81;4997607;28;20071;-48
2022/11/15 03:38:45;;;;;;;11.00;4.15;;;;;;;21.17;53.63;100358.63;5001565;28;20026;-49
2022/11/15 03:41:20;;;;;;;9.45;4.00;;;;;;;21.17;53.70;100358.63;4999730;28;20502;-48
2022/11/15 03:43:45;;;;;;;12.10;4.18;;;;;;;21.16;53.66;100359.59;5003247;28;20037;-48
2022/11/15 03:46:25;;;;;;;13.65;4.80;;;;;;;21.16;53.85;100362.22;5000330;28;20096;-47
2022/11/15 03:48:56;;;;;;;12.43;5.07;;;;;;;21.16;53.87;100362.22;5001732;28;20494;-49
2022/11/15 03:51:21;;;;;;;13.55;4.75;;;;;;;21.16;53.65;100359.59;5000976;28;20364;-51
2022/11/15 03:53:47;;;;;;;13.38;4.30;;;;;;;21.15;53.67;100364.00;4999309;28;20044;-49
2022/11/15 03:56:12;;;;;;;15.13;4.93;;;;;;;21.16;53.63;100356.97;5000554;28;20133;-51
2022/11/15 03:58:38;;;;;;;14.25;4.88;;;;;;;21.15;54.07;100357.88;5001815;28;20125;-49
2022/11/15 04:01:03;;;;;;;10.93;4.85;;;;;;;21.14;53.90;100357.03;5000230;28;20458;-51
2022/11/15 04:03:28;;;;;;;13.15;5.45;;;;;;;21.14;53.93;100362.28;4995131;28;20039;-49
2022/11/15 04:05:54;;;;;;;13.63;5.20;;;;;;;21.15;53.81;100355.25;4998761;28;20107;-49
2022/11/15 04:08:19;;;;;;;14.73;5.43;;;;;;;21.14;53.88;100346.53;4991177;28;20069;-48
2022/11/15 04:10:44;;;;;;;10.95;5.35;;;;;;;21.15;53.67;100347.38;4996778;28;20061;-49
2022/11/15 04:13:10;;;;;;;13.15;5.72;;;;;;;21.15;53.82;100331.59;4990017;28;20791;-49
2022/11/15 04:15:35;;;;;;;16.38;7.05;;;;;;;21.14;53.83;100328.13;4996572;28;20550;-48
2022/11/15 04:18:00;;;;;;;13.35;5.78;;;;;;;21.14;53.61;100329.91;4996127;28;20034;-49
2022/11/15 04:26:02;;;;;;;16.23;5.95;;;;;;;21.14;53.95;100332.53;5000409;28;20045;-50
2022/11/15 04:28:28;;;;;;;14.90;6.10;;;;;;;21.14;53.95;100332.53;5000986;28;20030;-49
2022/11/15 04:30:54;;;;;;;13.52;5.38;;;;;;;21.13;53.80;100323.81;4999944;28;20038;-49
2022/11/15 04:33:19;;;;;;;14.60;5.95;;;;;;;21.13;54.02;100334.34;4997072;28;20041;-48
2022/11/15 04:37:11;;;;;;;11.32;5.95;;;;;;;21.13;53.91;100336.13;4998685;28;20172;-47
2022/11/15 04:38:30;;;;;;;13.48;5.82;;;;;;;21.12;53.78;100335.25;4991407;28;20034;-50
2022/11/15 04:40:55;;;;;;;14.57;5.53;;;;;;;21.13;54.05;100336.13;4996613;28;20092;-48
2022/11/15 04:43:21;;;;;;;14.98;5.80;;;;;;;21.13;53.86;100336.97;4997027;28;20042;-49
2022/11/15 04:45:46;;;;;;;14.15;5.45;;;;;;;21.12;53.81;100340.53;4997620;28;20113;-48
2022/11/15 04:48:11;;;;;;;14.90;5.10;;;;;;;21.12;53.57;100344.94;4999254;28;20042;-47
2022/11/15 04:50:37;;;;;;;14.68;6.25;;;;;;;21.12;53.96;100340.53;4996132;28;20065;-49
2022/11/15 04:53:02;;;;;;;16.42;6.35;;;;;;;21.12;53.69;100348.41;4994043;28;20044;-49
2022/11/15 04:55:27;;;;;;;16.95;7.40;;;;;;;21.12;53.84;100347.56;4993977;28;20037;-49
2022/11/15 04:58:00;;;;;;;13.23;5.25;;;;;;;21.11;53.82;100344.06;5028251;28;20487;-49
2022/11/15 05:00:27;;;;;;;16.02;6.03;;;;;;;21.11;53.66;100351.97;4996228;28;20054;-49
2022/11/15 05:05:37;;;;;;;13.93;5.60;;;;;;;21.11;53.77;100345.84;4995242;28;20052;-48
2022/11/15 05:08:03;;;;;;;14.15;6.03;;;;;;;21.12;53.90;100344.94;4997355;28;20041;-50
2022/11/15 05:10:28;;;;;;;10.32;4.85;;;;;;;21.11;53.83;100346.69;4997396;28;20044;-49
2022/11/15 05:12:54;;;;;;;15.05;6.13;;;;;;;21.12;53.94;100355.44;4996846;28;20814;-47
2022/11/15 05:15:19;;;;;;;16.55;5.95;;;;;;;21.12;53.95;100352.81;5000444;28;20030;-50
2022/11/15 05:17:45;;;;;;;12.63;5.20;;;;;;;21.10;54.01;100344.19;4999662;28;20598;-49
2022/11/15 05:20:11;;;;;;;15.95;5.85;;;;;;;21.09;53.98;100340.69;4999810;28;20472;-49
2022/11/15 05:22:36;;;;;;;14.73;5.85;;;;;;;21.11;53.78;100337.97;4998616;28;20077;-49
2022/11/15 05:25:02;;;;;;;13.95;6.28;;;;;;;21.09;53.99;100343.31;4998030;28;20045;-53
2022/11/15 05:27:27;;;;;;;15.77;6.88;;;;;;;21.11;54.09;100345.84;4992743;28;20038;-49
2022/11/15 05:29:52;;;;;;;11.98;4.90;;;;;;;21.09;53.98;100347.72;4999525;28;20041;-51
2022/11/15 05:32:18;;;;;;;15.52;5.35;;;;;;;21.09;54.07;100350.34;4995879;28;20134;-51
2022/11/15 05:34:44;;;;;;;12.77;5.40;;;;;;;21.09;53.85;100355.63;4997839;28;20072;-48
2022/11/15 05:37:09;;;;;;;13.38;5.75;;;;;;;21.08;53.80;100346.88;4996700;28;20502;-49
2022/11/15 05:39:35;;;;;;;14.18;6.82;;;;;;;21.09;53.80;100347.72;4998645;28;20077;-48
2022/11/15 05:42:07;;;;;;;13.98;5.28;;;;;;;21.08;53.88;100349.50;5002818;28;20042;-47
2022/11/15 05:44:35;;;;;;;15.13;5.15;;;;;;;21.09;53.87;100360.88;4996129;28;20038;-48
2022/11/15 05:47:04;;;;;;;15.15;6.22;;;;;;;21.09;53.90;100358.25;4994442;28;20044;-47
2022/11/15 05:49:34;;;;;;;13.43;5.45;;;;;;;21.10;53.87;100352.06;4998672;28;20578;-52
2022/11/15 05:51:59;;;;;;;13.45;5.60;;;;;;;21.10;53.48;100341.56;4997539;28;20058;-47
2022/11/15 05:54:25;;;;;;;19.40;7.80;;;;;;;21.13;53.83;100342.22;4996616;28;20116;-48
2022/11/15 05:56:51;;;;;;;14.35;5.47;;;;;;;21.16;53.63;100351.72;4996240;28;20038;-48
2022/11/15 05:59:18;;;;;;;16.67;7.13;;;;;;;21.19;53.70;100357.59;4998409;28;20403;-46
2022/11/15 06:01:43;;;;;;;15.20;6.18;;;;;;;21.22;53.60;100361.88;4995091;28;20053;-47
2022/11/15 06:04:09;;;;;;;11.55;5.00;;;;;;;21.24;53.59;100352.94;4999723;28;20039;-50
2022/11/15 06:06:34;;;;;;;12.98;5.38;;;;;;;21.27;53.54;100350.16;4996124;28;20037;-48
2022/11/15 06:08:59;;;;;;;14.93;5.70;;;;;;;21.28;53.63;100354.44;4997632;28;20041;-47
2022/11/15 06:11:25;;;;;;;13.57;5.63;;;;;;;21.31;53.56;100361.34;4996027;28;20067;-50
2022/11/15 06:13:50;;;;;;;9.02;4.60;;;;;;;21.33;53.40;100359.44;4997732;28;20042;-48
2022/11/15 06:16:16;;;;;;;18.65;8.13;;;;;;;21.34;53.35;100362.94;4992389;28;20152;-48
2022/11/15 06:18:41;;;;;;;14.20;5.35;;;;;;;21.36;53.45;100371.56;4997440;28;20076;-52
2022/11/15 06:21:07;;;;;;;15.50;6.65;;;;;;;21.36;53.35;100380.31;4996252;28;20044;-47
2022/11/15 06:23:34;;;;;;;16.95;6.32;;;;;;;21.39;53.50;100380.13;4997745;28;20414;-49
2022/11/15 06:26:02;;;;;;;17.70;6.43;;;;;;;21.40;53.15;100384.47;4997601;28;20791;-49
2022/11/15 06:28:31;;;;;;;14.75;5.72;;;;;;;21.44;53.22;100377.19;4997612;28;20046;-50
2022/11/15 06:31:03;;;;;;;17.92;5.80;;;;;;;21.46;53.13;100373.53;4998582;28;20037;-48
2022/11/15 06:33:28;;;;;;;14.80;6.22;;;;;;;21.49;53.17;100381.25;4999817;28;20117;-48
2022/11/15 06:35:54;;;;;;;8.52;4.00;;;;;;;21.53;53.07;100381.91;4998386;28;20823;-50
2022/11/15 06:38:19;;;;;;;15.32;5.47;;;;;;;21.55;52.88;100386.19;4996171;28;20038;-47
2022/11/15 06:40:45;;;;;;;13.18;5.07;;;;;;;21.59;52.91;100386.84;4995704;28;20770;-48
2022/11/15 06:43:10;;;;;;;13.68;5.45;;;;;;;21.59;53.01;100379.81;4997534;28;20041;-49
2022/11/15 06:45:35;;;;;;;16.63;6.25;;;;;;;21.62;53.03;100386.66;4996360;28;20100;-49
2022/11/15 06:48:01;;;;;;;12.90;5.05;;;;;;;21.64;52.92;100387.44;4996898;28;20033;-46
2022/11/15 06:50:27;;;;;;;14.68;5.53;;;;;;;21.65;53.02;100387.34;4996574;28;20569;-49
2022/11/15 06:52:52;;;;;;;15.88;5.70;;;;;;;21.68;52.76;100392.41;4997414;28;20443;-50
2022/11/15 06:55:18;;;;;;;15.13;5.93;;;;;;;21.71;53.08;100392.22;4996851;28;20045;-47
2022/11/15 06:57:48;;;;;;;20.83;5.97;;;;;;;21.73;53.10;100398.25;4994133;28;20517;-47
2022/11/15 07:00:14;;;;;;;11.52;4.78;;;;;;;21.76;52.83;100405.09;4998631;28;20025;-47
2022/11/15 07:02:39;;;;;;;17.45;6.45;;;;;;;21.76;52.94;100389.31;4989262;28;20034;-47
2022/11/15 07:05:05;;;;;;;11.50;4.75;;;;;;;21.78;53.16;100397.97;5028146;28;20049;-47
2022/11/15 07:07:31;;;;;;;15.85;5.38;;;;;;;21.77;53.16;100394.50;4996725;28;20077;-46
2022/11/15 07:09:56;;;;;;;13.55;5.45;;;;;;;21.79;53.12;100399.66;4999828;28;20038;-45
2022/11/15 07:12:21;;;;;;;15.63;6.28;;;;;;;21.78;53.28;100392.72;4994114;28;21083;-45
2022/11/15 07:14:47;;;;;;;17.00;6.00;;;;;;;21.79;53.29;100399.66;4993355;28;20046;-46
2022/11/15 07:17:12;;;;;;;14.32;6.10;;;;;;;21.82;53.22;100407.34;4999522;28;20032;-46
2022/11/15 07:19:37;;;;;;;15.65;5.80;;;;;;;21.84;53.19;100409.91;4998346;28;20803;-45
2022/11/15 07:22:03;;;;;;;14.55;5.47;;;;;;;21.85;53.23;100409.81;5000140;28;20060;-44
2022/11/15 07:24:28;;;;;;;12.25;4.75;;;;;;;21.86;53.22;100403.63;4999634;28;20109;-45
2022/11/15 07:26:53;;;;;;;18.27;6.60;;;;;;;21.89;53.11;100406.06;4997020;28;20054;-48
2022/11/15 07:29:19;;;;;;;21.15;8.35;;;;;;;21.88;53.20;100412.25;4996784;28;20042;-45
2022/11/15 07:31:44;;;;;;;22.52;6.78;;;;;;;21.92;53.66;100408.50;4994151;28;20038;-50
2022/11/15 07:34:10;;;;;;;25.63;8.77;;;;;;;21.99;53.83;100411.63;4995281;28;20128;-49
2022/11/15 07:36:35;;;;;;;16.00;5.43;;;;;;;22.04;54.14;100418.28;4999171;28;20100;-48
2022/11/15 07:39:00;;;;;;;17.60;6.30;;;;;;;22.10;54.44;100425.81;4998453;28;20053;-46
2022/11/15 07:41:26;;;;;;;20.08;5.97;;;;;;;22.17;54.58;100427.16;4986865;28;20038;-48
2022/11/15 07:43:52;;;;;;;20.42;7.38;;;;;;;22.21;54.78;100423.38;4970594;28;20038;-49
2022/11/15 07:46:17;;;;;;;15.85;5.65;;;;;;;22.25;54.69;100435.41;4978651;28;20038;-46
2022/11/15 07:48:43;;;;;;;15.75;5.20;;;;;;;22.29;55.06;100436.91;4978051;28;20803;-48
2022/11/15 07:51:12;;;;;;;17.75;6.13;;;;;;;22.34;54.98;100436.63;4976663;28;20058;-53
2022/11/15 07:53:37;;;;;;;19.88;6.25;;;;;;;22.41;54.98;100432.72;4978194;28;20066;-48
2022/11/15 07:56:06;;;;;;;14.50;6.03;;;;;;;22.45;55.35;100422.81;4977179;28;20061;-46
2022/11/15 07:58:31;;;;;;;16.73;5.72;;;;;;;22.48;55.45;100426.09;4975586;28;20042;-48
2022/11/15 08:00:56;;;;;;;18.70;6.82;;;;;;;22.50;55.41;100433.94;4975453;28;20381;-48
2022/11/15 08:03:22;;;;;;;17.48;5.57;;;;;;;22.52;55.57;100427.63;4982302;28;20038;-47
2022/11/15 08:05:50;;;;;;;18.40;6.40;;;;;;;22.54;55.65;100431.00;4976064;28;20037;-46
2022/11/15 08:08:16;;;;;;;19.80;6.32;;;;;;;22.57;55.82;100422.03;4978457;28;20085;-45
2022/11/15 08:10:43;;;;;;;14.07;5.60;;;;;;;22.60;55.80;100413.94;4983448;28;20052;-46
2022/11/15 08:13:10;;;;;;;11.57;5.45;;;;;;;22.63;55.90;100419.03;4977493;28;20038;-48
2022/11/15 08:15:36;;;;;;;18.98;6.30;;;;;;;22.64;56.05;100418.94;4972740;28;20035;-48
2022/11/15 08:18:05;;;;;;;13.95;5.60;;;;;;;22.67;56.24;100420.53;4976533;28;20026;-51
2022/11/15 08:20:31;;;;;;;11.32;4.93;;;;;;;22.67;56.24;100420.53;4974496;28;20669;-52
2022/11/15 08:23:01;;;;;;;15.70;5.53;;;;;;;22.68;56.30;100417.78;4978409;28;20034;-51
2022/11/15 08:25:31;;;;;;;14.85;5.18;;;;;;;22.70;56.42;100418.56;4981202;28;20038;-49
2022/11/15 08:27:59;;;;;;;14.80;5.35;;;;;;;22.72;56.52;100414.03;4973584;28;20034;-49
2022/11/15 08:30:25;;;;;;;15.65;5.38;;;;;;;22.76;56.52;100415.53;4983973;28;20480;-51
2022/11/15 08:32:52;;;;;;;17.05;6.03;;;;;;;22.78;56.65;100407.50;4995272;28;20045;-48
2022/11/15 08:35:18;;;;;;;14.70;5.60;;;;;;;22.79;56.67;100402.16;4992408;28;20042;-45
2022/11/15 08:37:44;;;;;;;20.50;6.20;;;;;;;22.81;56.86;100400.25;4998573;28;20038;-45
2022/11/15 08:40:10;;;;;;;13.07;4.57;;;;;;;22.83;56.87;100403.63;4993265;28;20034;-45
2022/11/15 08:42:36;;;;;;;18.67;6.47;;;;;;;22.85;56.84;100401.75;4999673;28;20030;-55
2022/11/15 08:45:02;;;;;;;13.85;5.40;;;;;;;22.87;56.84;100396.38;4995815;28;20042;-48
2022/11/15 08:47:27;;;;;;;18.95;5.47;;;;;;;22.88;56.91;100385.75;4996101;28;20038;-46
2022/11/15 08:49:53;;;;;;;12.13;5.03;;;;;;;22.92;56.83;100380.28;4994385;28;20038;-46
2022/11/15 08:52:18;;;;;;;31.30;8.75;;;;;;;22.94;56.95;100383.66;4998118;28;20101;-48
2022/11/15 08:54:44;;;;;;;15.55;5.40;;;;;;;22.98;56.99;100387.78;4997252;28;20029;-46
2022/11/15 08:57:09;;;;;;;17.20;6.05;;;;;;;22.98;57.00;100388.59;5003800;28;20511;-46
2022/11/15 08:59:35;;;;;;;20.00;6.55;;;;;;;23.00;56.70;100380.59;4995608;28;20037;-47
2022/11/15 09:02:01;;;;;;;16.23;5.10;;;;;;;22.99;56.66;100376.28;5003203;28;20231;-46
2022/11/15 09:04:27;;;;;;;20.40;6.25;;;;;;;22.98;56.56;100379.88;5000855;28;20564;-46
2022/11/15 09:06:52;;;;;;;22.30;6.75;;;;;;;22.97;56.52;100379.03;4997962;28;20061;-45
2022/11/15 09:09:17;;;;;;;16.80;7.40;;;;;;;22.98;56.43;100380.69;4999724;28;20033;-43
2022/11/15 09:11:43;;;;;;;15.23;6.15;;;;;;;23.02;56.57;100379.56;4998153;28;20411;-46
2022/11/15 09:14:12;;;;;;;15.30;5.05;;;;;;;23.04;56.24;100382.06;4994355;28;20045;-44
2022/11/15 09:16:37;;;;;;;20.23;6.18;;;;;;;23.03;56.26;100373.34;5001206;28;20034;-45
2022/11/15 09:19:02;;;;;;;16.17;5.05;;;;;;;23.06;56.27;100377.56;4999529;28;20049;-44
2022/11/15 09:21:29;;;;;;;18.55;5.93;;;;;;;23.06;56.08;100372.31;4997294;28;20037;-45
2022/11/15 09:23:54;;;;;;;10.98;4.28;;;;;;;23.07;55.90;100360.78;5000100;28;20057;-45
2022/11/15 09:26:20;;;;;;;12.48;5.07;;;;;;;23.05;55.84;100368.81;5000492;28;20149;-45
2022/11/15 09:28:45;;;;;;;20.00;6.68;;;;;;;23.05;55.71;100366.19;5007779;28;20030;-45
2022/11/15 09:31:11;;;;;;;13.48;5.07;;;;;;;23.07;55.74;100363.41;4997510;28;20042;-44
2022/11/15 09:33:36;;;;;;;14.98;5.25;;;;;;;23.07;55.69;100374.81;4999428;28;20043;-44
2022/11/15 09:36:07;;;;;;;16.77;6.97;;;;;;;23.09;55.53;100372.09;4990418;28;20052;-45
2022/11/15 09:38:34;;;;;;;20.50;6.80;;;;;;;23.13;55.44;100363.03;4992514;28;20099;-42
2022/11/15 09:41:11;;;;;;;18.05;6.50;;;;;;;23.15;55.15;100362.00;4997914;28;20814;-43
2022/11/15 09:43:48;;;;;;;16.08;5.88;;;;;;;23.16;55.26;100355.75;4998620;28;20091;-43
2022/11/15 09:46:35;;;;;;;14.75;4.53;;;;;;;23.15;55.39;100354.09;4998979;28;20041;-42
2022/11/15 09:49:02;;;;;;;17.80;6.38;;;;;;;23.15;55.34;100337.41;4996920;28;20046;-44
2022/11/15 09:51:46;;;;;;;15.65;5.82;;;;;;;23.16;55.28;100345.22;4998425;28;20033;-44
2022/11/15 09:54:33;;;;;;;13.00;4.93;;;;;;;23.20;55.27;100335.34;4999740;28;20038;-45
2022/11/15 09:57:11;;;;;;;9.93;4.05;;;;;;;23.20;55.14;100330.91;4996267;28;20041;-44
2022/11/15 09:59:55;;;;;;;17.02;5.88;;;;;;;23.19;55.14;100323.94;4993864;28;20042;-44
2022/11/15 10:02:51;;;;;;;18.30;5.90;;;;;;;23.19;55.21;100323.94;4998437;28;20669;-45
2022/11/15 10:05:21;;;;;;;17.83;5.82;;;;;;;23.19;55.42;100317.81;5001128;28;20053;-46
2022/11/15 10:08:00;;;;;;;17.25;5.78;;;;;;;23.19;55.21;100305.47;4997980;28;20045;-45
2022/11/15 10:10:39;;;;;;;13.35;5.70;;;;;;;23.22;55.19;100312.34;4996888;28;20147;-45
2022/11/15 10:13:09;;;;;;;19.85;6.88;;;;;;;23.21;54.88;100300.13;4995364;28;20440;-43
2022/11/15 10:15:35;;;;;;;12.82;4.45;;;;;;;23.17;54.82;100296.81;4995659;28;20109;-43
2022/11/15 10:18:18;;;;;;;12.23;4.95;;;;;;;23.14;54.63;100302.28;4996096;28;20080;-43
2022/11/15 10:20:57;;;;;;;13.68;5.60;;;;;;;23.10;54.57;100297.31;4995608;28;20054;-43
2022/11/15 10:23:23;;;;;;;10.60;4.15;;;;;;;23.08;54.54;100296.56;4996807;28;20140;-43
2022/11/15 10:25:58;;;;;;;15.13;5.47;;;;;;;23.09;54.46;100288.59;4999931;28;20697;-44
2022/11/15 10:28:30;;;;;;;16.17;5.65;;;;;;;23.12;54.53;100279.63;4997274;28;20088;-44
2022/11/15 10:31:00;;;;;;;18.63;6.65;;;;;;;23.14;54.45;100291.75;4994396;28;20046;-43
2022/11/15 10:33:38;;;;;;;12.48;5.03;;;;;;;23.16;54.51;100286.34;4996125;28;20768;-44
2022/11/15 10:36:09;;;;;;;10.15;4.03;;;;;;;23.16;54.38;100281.94;4995717;28;20050;-45
2022/11/15 10:38:50;;;;;;;12.82;4.85;;;;;;;23.17;54.68;100282.78;4997309;28;20042;-48
2022/11/15 10:41:15;;;;;;;15.10;5.28;;;;;;;23.19;54.35;100279.13;4998225;28;20403;-45
2022/11/15 10:43:41;;;;;;;19.85;7.70;;;;;;;23.22;54.41;100273.63;4992093;28;20034;-43
2022/11/15 10:46:22;;;;;;;13.30;5.25;;;;;;;23.24;54.39;100274.38;4994788;28;20097;-44
2022/11/15 10:48:48;;;;;;;14.43;4.97;;;;;;;23.25;54.44;100262.88;4977295;28;20018;-43
2022/11/15 10:51:29;;;;;;;10.48;4.30;;;;;;;23.26;54.44;100264.56;4974478;28;20053;-45
2022/11/15 10:53:59;;;;;;;13.48;5.13;;;;;;;23.25;54.46;100262.88;4973727;28;20038;-45
2022/11/15 10:56:26;;;;;;;14.38;4.93;;;;;;;23.24;54.30;100260.34;4974406;28;20104;-47
2022/11/15 10:58:56;;;;;;;15.07;5.57;;;;;;;23.25;54.53;100252.31;4974265;28;20044;-47
2022/11/15 11:01:24;;;;;;;14.10;5.00;;;;;;;23.26;54.24;100256.66;4974830;28;20052;-46
2022/11/15 11:04:02;;;;;;;15.68;5.43;;;;;;;23.29;54.13;100250.31;4978146;28;20034;-45
2022/11/15 11:06:28;;;;;;;15.23;6.25;;;;;;;23.29;54.39;100245.91;4980909;28;20034;-45
2022/11/15 11:09:01;;;;;;;13.13;4.65;;;;;;;23.29;54.33;100240.63;4998115;28;20042;-45
2022/11/15 11:11:46;;;;;;;17.85;6.15;;;;;;;23.28;54.36;100235.44;4996888;28;20076;-45
2022/11/15 11:14:24;;;;;;;16.48;5.22;;;;;;;23.29;54.27;100230.06;4993919;28;20093;-45
2022/11/15 11:17:16;;;;;;;15.35;6.15;;;;;;;23.31;54.33;100229.94;4996723;28;20380;-46
2022/11/15 11:20:41;;;;;;;16.33;6.18;;;;;;;23.33;54.07;100236.81;4997974;28;20030;-46
2022/11/15 11:23:06;;;;;;;13.98;5.88;;;;;;;23.33;54.20;100228.91;4953273;28;20807;-46
2022/11/15 11:25:43;;;;;;;13.98;5.05;;;;;;;23.34;54.21;100229.75;4958235;28;20106;-45
2022/11/15 11:28:33;;;;;;;15.05;6.00;;;;;;;23.33;54.17;100220.97;4984562;28;20518;-45
2022/11/15 11:31:08;;;;;;;12.95;5.22;;;;;;;23.35;54.39;100218.25;4993908;28;20551;-44
2022/11/15 11:33:44;;;;;;;18.98;7.38;;;;;;;23.36;54.24;100215.50;4991165;28;20038;-45
2022/11/15 11:36:38;;;;;;;14.00;4.95;;;;;;;23.40;53.95;100208.22;4997035;28;20606;-45
2022/11/15 11:39:49;;;;;;;14.05;5.22;;;;;;;23.43;54.25;100200.94;4992687;28;20038;-44